Time;durP1;ratioP1;P1;durP2;ratioP2;P2;SDS_P1;SDS_P2;PMS_P1;PMS_P2;Temp;Humidity;BMP_temperature;BMP_pressure;BME280_temperature;BME280_humidity;BME280_pressure;Samples;Min_cycle;Max_cycle;Signal;HPM_P1;HPM_P2
2022/03/26 00:00:58;;;;;;;;;;;;;;;18.99;55.10;99593.34;2059036;28;20012;-54
2022/03/26 00:01:59;;;;;;;;;;;;;;;19.00;55.73;99591.47;2053208;28;20429;-54
2022/03/26 00:03:00;;;;;;;;;;;;;;;19.01;55.22;99598.53;2051552;28;19925;-55
2022/03/26 00:04:02;;;;;;;;;;;;;;;18.99;55.53;99598.72;2059829;28;20383;-56
2022/03/26 00:05:02;;;;;;;;;;;;;;;19.00;55.62;99594.16;2052985;28;19925;-55
2022/03/26 00:06:06;;;;;;;;;;;;;;;18.98;55.21;99600.56;2058611;28;20448;-56
2022/03/26 00:07:06;;;;;;;;;;;;;;;18.98;55.20;99597.88;2056025;28;19926;-55
2022/03/26 00:08:08;;;;;;;;;;;;;;;18.98;55.48;99597.06;2056639;28;19948;-55
2022/03/26 00:09:09;;;;;;;;;;;;;;;18.97;55.33;99598.91;2053270;28;20013;-55
2022/03/26 00:10:10;;;;;;;;;;;;;;;18.98;55.65;99599.75;2054353;28;19946;-55
2022/03/26 00:11:12;;;;;;;;;;;;;;;18.98;55.33;99599.75;2059415;28;20601;-55
2022/03/26 00:12:12;;;;;;;;;;;;;;;18.97;55.48;99604.28;2049611;28;20867;-53
2022/03/26 00:13:15;;;;;;;;;;;;;;;18.97;55.73;99598.06;2055127;28;19926;-51
2022/03/26 00:14:15;;;;;;;;;;;;;;;18.97;55.28;99596.22;2058677;28;19932;-52
2022/03/26 00:15:18;;;;;;;;;;;;;;;18.96;55.73;99599.91;2055193;28;19997;-53
2022/03/26 00:16:19;;;;;;;;;;;;;;;18.95;55.55;99598.25;2054275;28;19937;-54
2022/03/26 00:17:20;;;;;;;;;;;;;;;18.95;55.71;99594.72;2057883;28;20617;-54
2022/03/26 00:18:21;;;;;;;;;;;;;;;18.95;55.77;99592.88;2059320;28;19926;-55
2022/03/26 00:19:23;;;;;;;;;;;;;;;18.96;55.25;99596.38;2056170;28;20087;-55
2022/03/26 00:20:23;;;;;;;;;;;;;;;18.96;55.52;99594.53;2057711;28;19984;-54
2022/03/26 00:21:25;;;;;;;;;;;;;;;18.94;55.61;99593.91;2054240;28;19921;-55
2022/03/26 00:22:25;;;;;;;;;;;;;;;18.93;55.27;99594.91;2057946;28;19957;-53
2022/03/26 00:23:27;;;;;;;;;;;;;;;18.94;55.71;99599.28;2053291;28;19929;-54
2022/03/26 00:24:28;;;;;;;;;;;;;;;18.93;55.82;99597.59;2057960;28;19925;-54
2022/03/26 00:25:29;;;;;;;;;;;;;;;18.94;55.36;99596.59;2053079;28;19969;-55
2022/03/26 00:26:30;;;;;;;;;;;;;;;18.92;55.16;99593.25;2053586;28;20280;-54
2022/03/26 00:27:31;;;;;;;;;;;;;;;18.93;55.77;99594.06;2054693;28;19932;-53
2022/03/26 00:28:32;;;;;;;;;;;;;;;18.93;55.89;99596.75;2055480;28;19949;-54
2022/03/26 00:29:33;;;;;;;;;;;;;;;18.92;55.64;99590.56;2054206;28;20371;-57
2022/03/26 00:30:35;;;;;;;;;;;;;;;18.92;55.85;99593.25;2050562;28;19976;-53
2022/03/26 00:31:37;;;;;;;;;;;;;;;18.92;55.99;99589.72;2053367;28;19922;-53
2022/03/26 00:32:38;;;;;;;;;;;;;;;18.92;55.80;99590.56;2050120;28;19934;-56
2022/03/26 00:33:42;;;;;;;;;;;;;;;18.92;55.27;99597.78;2054938;28;20363;-51
2022/03/26 00:34:43;;;;;;;;;;;;;;;18.91;55.69;99588.03;2057431;28;19922;-53
2022/03/26 00:35:46;;;;;;;;;;;;;;;18.91;56.10;99591.56;2058177;28;19925;-56
2022/03/26 00:36:46;;;;;;;;;;;;;;;18.92;55.43;99595.09;2043343;28;20069;-53
2022/03/26 00:37:48;;;;;;;;;;;;;;;18.91;55.68;99593.41;2054066;28;19925;-53
2022/03/26 00:38:48;;;;;;;;;;;;;;;18.90;55.73;99589.88;2052748;28;19926;-53
2022/03/26 00:39:50;;;;;;;;;;;;;;;18.89;55.83;99588.22;2056515;28;20025;-54
2022/03/26 00:40:51;;;;;;;;;;;;;;;18.89;55.59;99590.91;2054689;28;19926;-52
2022/03/26 00:41:52;;;;;;;;;;;;;;;18.89;55.96;99592.78;2058639;28;20100;-53
2022/03/26 00:42:54;;;;;;;;;;;;;;;18.89;55.66;99587.41;2052858;28;19978;-53
2022/03/26 00:43:54;;;;;;;;;;;;;;;18.89;55.80;99588.22;2053484;28;19929;-51
2022/03/26 00:44:56;;;;;;;;;;;;;;;18.88;56.01;99591.91;2052946;28;20376;-53
2022/03/26 00:45:58;;;;;;;;;;;;;;;18.89;55.89;99588.22;2057455;28;19925;-53
2022/03/26 00:47:00;;;;;;;;;;;;;;;18.88;55.29;99591.91;2055309;28;20406;-55
2022/03/26 00:48:02;;;;;;;;;;;;;;;18.87;55.67;99587.56;2056234;28;19926;-54
2022/03/26 00:49:02;;;;;;;;;;;;;;;18.87;55.25;99586.75;2056431;28;20577;-52
2022/03/26 00:50:04;;;;;;;;;;;;;;;18.88;56.16;99588.41;2056250;28;19930;-54
2022/03/26 00:51:05;;;;;;;;;;;;;;;18.87;55.77;99592.94;2054258;28;20540;-54
2022/03/26 00:52:06;;;;;;;;;;;;;;;18.86;55.25;99591.28;2050802;28;19926;-53
2022/03/26 00:53:07;;;;;;;;;;;;;;;18.85;55.26;99589.59;2051117;28;20314;-53
2022/03/26 00:54:09;;;;;;;;;;;;;;;18.85;55.68;99592.28;2055186;28;19949;-53
2022/03/26 00:55:10;;;;;;;;;;;;;;;18.85;55.61;99592.28;2058066;28;19925;-54
2022/03/26 00:56:12;;;;;;;;;;;;;;;18.85;55.68;99583.38;2055905;28;20376;-54
2022/03/26 00:57:13;;;;;;;;;;;;;;;18.84;55.58;99590.63;2058546;28;20635;-53
2022/03/26 00:58:15;;;;;;;;;;;;;;;18.83;55.78;99586.25;2056266;28;19926;-53
2022/03/26 00:59:15;;;;;;;;;;;;;;;18.84;55.93;99593.31;2057398;28;20036;-55
2022/03/26 01:00:17;;;;;;;;;;;;;;;18.82;55.85;99584.59;2057130;28;19929;-53
2022/03/26 01:01:19;;;;;;;;;;;;;;;18.83;55.52;99588.09;2058124;28;19929;-52
2022/03/26 01:02:20;;;;;;;;;;;;;;;18.83;55.88;99583.56;2054169;28;19926;-57
2022/03/26 01:03:21;;;;;;;;;;;;;;;18.83;55.64;99591.63;2055362;28;20514;-51
2022/03/26 01:04:23;;;;;;;;;;;;;;;18.85;55.87;99594.13;2056305;28;19926;-53
2022/03/26 01:05:24;;;;;;;;;;;;;;;18.82;55.72;99584.59;2056630;28;20708;-54
2022/03/26 01:06:25;;;;;;;;;;;;;;;18.83;55.71;99591.63;2056060;28;19921;-54
2022/03/26 01:07:27;;;;;;;;;;;;;;;18.83;55.90;99588.94;2054848;28;19931;-54
2022/03/26 01:08:27;;;;;;;;;;;;;;;18.83;55.77;99593.47;2057646;28;19922;-54
2022/03/26 01:09:29;;;;;;;;;;;;;;;18.80;55.49;99583.91;2057159;28;19988;-51
2022/03/26 01:10:30;;;;;;;;;;;;;;;18.80;55.85;99591.97;2056294;28;19922;-57
2022/03/26 01:11:32;;;;;;;;;;;;;;;18.80;55.85;99589.31;2057292;28;19984;-55
2022/03/26 01:12:32;;;;;;;;;;;;;;;18.79;55.84;99587.63;2058197;28;19922;-55
2022/03/26 01:13:34;;;;;;;;;;;;;;;18.79;55.70;99584.94;2053373;28;19921;-51
2022/03/26 01:14:35;;;;;;;;;;;;;;;18.79;55.89;99587.63;2054298;28;20041;-49
2022/03/26 01:15:37;;;;;;;;;;;;;;;18.78;55.67;99583.28;2056939;28;20063;-55
2022/03/26 01:16:39;;;;;;;;;;;;;;;18.78;55.84;99579.75;2056899;28;19929;-49
2022/03/26 01:17:40;;;;;;;;;;;;;;;18.78;55.67;99588.66;2054829;28;19926;-55
2022/03/26 01:18:41;;;;;;;;;;;;;;;18.79;55.53;99584.94;2053223;28;19940;-55
2022/03/26 01:19:43;;;;;;;;;;;;;;;18.80;55.92;99588.47;2053910;28;20628;-53
2022/03/26 01:20:44;;;;;;;;;;;;;;;18.78;55.84;99588.66;2055214;28;20008;-51
2022/03/26 01:21:45;;;;;;;;;;;;;;;18.78;55.94;99583.28;2057546;28;19926;-55
2022/03/26 01:22:46;;;;;;;;;;;;;;;18.76;55.86;99585.31;2057552;28;20277;-54
2022/03/26 01:23:48;;;;;;;;;;;;;;;18.76;55.80;99579.94;2057087;28;19928;-53
2022/03/26 01:24:49;;;;;;;;;;;;;;;18.77;55.87;99586.16;2053534;28;19984;-54
2022/03/26 01:25:50;;;;;;;;;;;;;;;18.74;55.84;99590.03;2058071;28;19929;-53
2022/03/26 01:26:51;;;;;;;;;;;;;;;18.76;55.93;99585.31;2056893;28;19929;-51
2022/03/26 01:27:52;;;;;;;;;;;;;;;18.75;55.86;99586.34;2054511;28;19928;-51
2022/03/26 01:28:54;;;;;;;;;;;;;;;18.75;56.01;99589.03;2054837;28;20016;-55
2022/03/26 01:29:55;;;;;;;;;;;;;;;18.75;55.99;99589.03;2055212;28;20008;-54
2022/03/26 01:30:56;;;;;;;;;;;;;;;18.73;55.53;99578.41;2057659;28;19948;-55
2022/03/26 01:31:59;;;;;;;;;;;;;;;18.73;55.79;99585.66;2057876;28;19932;-49
2022/03/26 01:32:59;;;;;;;;;;;;;;;18.74;55.75;99587.34;2056154;28;19932;-54
2022/03/26 01:34:01;;;;;;;;;;;;;;;18.72;55.77;99584.81;2056660;28;19980;-55
2022/03/26 01:35:02;;;;;;;;;;;;;;;18.74;55.77;99582.78;2051092;28;20008;-53
2022/03/26 01:36:04;;;;;;;;;;;;;;;18.72;55.77;99583.97;2058811;28;19955;-52
2022/03/26 01:37:05;;;;;;;;;;;;;;;18.72;55.82;99590.19;2058186;28;19928;-54
2022/03/26 01:38:07;;;;;;;;;;;;;;;18.69;55.65;99585.19;2055140;28;19983;-58
2022/03/26 01:39:07;;;;;;;;;;;;;;;18.70;55.92;99583.31;2052577;28;19933;-51
2022/03/26 01:40:09;;;;;;;;;;;;;;;18.70;55.82;99583.31;2057901;28;19949;-56
2022/03/26 01:41:10;;;;;;;;;;;;;;;18.69;55.76;99578.94;2053945;28;19932;-54
2022/03/26 01:42:11;;;;;;;;;;;;;;;18.69;55.37;99581.63;2054769;28;19949;-53
2022/03/26 01:43:12;;;;;;;;;;;;;;;18.68;55.87;99583.50;2054256;28;19922;-58
2022/03/26 01:44:14;;;;;;;;;;;;;;;18.69;55.73;99578.94;2055336;28;19932;-54
2022/03/26 01:45:14;;;;;;;;;;;;;;;18.69;55.72;99578.94;2054869;28;19936;-53
2022/03/26 01:46:16;;;;;;;;;;;;;;;18.68;55.76;99577.28;2054632;28;19928;-53
2022/03/26 01:47:18;;;;;;;;;;;;;;;18.65;55.85;99578.50;2056778;28;19980;-54
2022/03/26 01:48:20;;;;;;;;;;;;;;;18.65;55.64;99577.66;2056254;28;19975;-51
2022/03/26 01:49:21;;;;;;;;;;;;;;;18.66;55.76;99576.63;2041740;28;19925;-59
2022/03/26 01:50:22;;;;;;;;;;;;;;;18.66;55.73;99579.31;2053800;28;19965;-57
2022/03/26 01:51:23;;;;;;;;;;;;;;;18.66;55.97;99576.63;2055639;28;19926;-56
2022/03/26 01:52:24;;;;;;;;;;;;;;;18.65;55.88;99580.34;2055065;28;19922;-56
2022/03/26 01:53:25;;;;;;;;;;;;;;;18.66;56.07;99571.25;2054872;28;19922;-52
2022/03/26 01:54:28;;;;;;;;;;;;;;;18.64;55.85;99578.69;2055914;28;20358;-52
2022/03/26 01:55:28;;;;;;;;;;;;;;;18.64;55.79;99576.00;2052008;28;19930;-53
2022/03/26 01:56:31;;;;;;;;;;;;;;;18.63;55.83;99577.00;2048160;28;20042;-52
2022/03/26 01:57:32;;;;;;;;;;;;;;;18.61;55.93;99577.19;2056202;28;19930;-52
2022/03/26 01:58:33;;;;;;;;;;;;;;;18.62;55.57;99578.84;2052835;28;19922;-57
2022/03/26 01:59:35;;;;;;;;;;;;;;;18.61;55.77;99571.81;2054530;28;20396;-55
2022/03/26 02:00:36;;;;;;;;;;;;;;;18.63;55.98;99579.69;2052808;28;19933;-54
2022/03/26 02:01:38;;;;;;;;;;;;;;;18.61;55.89;99577.19;2057145;28;19922;-57
2022/03/26 02:02:43;;;;;;;;;;;;;;;18.60;55.65;99574.69;2055827;28;19979;-52
2022/03/26 02:03:44;;;;;;;;;;;;;;;18.60;55.80;99577.34;2054856;28;20411;-54
2022/03/26 02:04:45;;;;;;;;;;;;;;;18.60;56.04;99578.19;2049974;28;23335;-49
2022/03/26 02:05:47;;;;;;;;;;;;;;;18.61;55.71;99576.34;2053618;28;19930;-59
2022/03/26 02:06:47;;;;;;;;;;;;;;;18.60;55.76;99580.88;2056801;28;19926;-50
2022/03/26 02:07:50;;;;;;;;;;;;;;;18.59;55.95;99573.84;2054521;28;19933;-52
2022/03/26 02:08:51;;;;;;;;;;;;;;;18.58;55.87;99576.69;2055961;28;20805;-52
2022/03/26 02:09:52;;;;;;;;;;;;;;;18.58;55.93;99579.38;2052520;28;19933;-52
2022/03/26 02:10:53;;;;;;;;;;;;;;;18.58;55.77;99576.69;2055799;28;20052;-53
2022/03/26 02:11:55;;;;;;;;;;;;;;;18.57;55.77;99577.72;2056134;28;19930;-53
2022/03/26 02:12:55;;;;;;;;;;;;;;;18.57;55.87;99577.72;2044748;28;19929;-52
2022/03/26 02:13:57;;;;;;;;;;;;;;;18.56;55.46;99573.38;2054387;28;19928;-53
2022/03/26 02:14:58;;;;;;;;;;;;;;;18.54;55.73;99576.22;2057714;28;19933;-54
2022/03/26 02:16:00;;;;;;;;;;;;;;;18.52;55.67;99576.41;2055737;28;19922;-54
2022/03/26 02:17:00;;;;;;;;;;;;;;;18.53;56.05;99572.72;2056507;28;20395;-55
2022/03/26 02:18:03;;;;;;;;;;;;;;;18.54;55.92;99574.38;2052771;28;19926;-52
2022/03/26 02:19:04;;;;;;;;;;;;;;;18.56;55.75;99570.69;2051038;28;19934;-50
2022/03/26 02:20:09;;;;;;;;;;;;;;;18.53;55.86;99580.78;2055457;28;20032;-55
2022/03/26 02:21:10;;;;;;;;;;;;;;;18.54;55.87;99573.53;2053599;28;20518;-52
2022/03/26 02:22:11;;;;;;;;;;;;;;;18.53;55.76;99579.94;2051582;28;19929;-52
2022/03/26 02:23:12;;;;;;;;;;;;;;;18.51;55.86;99577.41;2055050;28;20574;-52
2022/03/26 02:24:13;;;;;;;;;;;;;;;18.48;55.94;99569.72;2056580;28;19925;-52
2022/03/26 02:25:14;;;;;;;;;;;;;;;18.50;55.64;99570.38;2054126;28;20359;-52
2022/03/26 02:26:16;;;;;;;;;;;;;;;18.50;55.95;99574.94;2055603;28;19965;-54
2022/03/26 02:27:17;;;;;;;;;;;;;;;18.50;55.96;99578.44;2052558;28;20486;-52
2022/03/26 02:28:18;;;;;;;;;;;;;;;18.49;55.83;99571.38;2056993;28;19922;-53
2022/03/26 02:29:19;;;;;;;;;;;;;;;18.48;55.78;99577.78;2052523;28;19933;-52
2022/03/26 02:30:21;;;;;;;;;;;;;;;18.48;55.69;99567.03;2052517;28;19929;-53
2022/03/26 02:31:22;;;;;;;;;;;;;;;18.49;55.86;99574.06;2055083;28;20750;-51
2022/03/26 02:32:24;;;;;;;;;;;;;;;18.50;55.81;99578.44;2054312;28;19925;-53
2022/03/26 02:33:24;;;;;;;;;;;;;;;18.47;55.83;99565.38;2055424;28;19921;-55
2022/03/26 02:34:26;;;;;;;;;;;;;;;18.47;55.93;99573.44;2056937;28;19921;-54
2022/03/26 02:35:28;;;;;;;;;;;;;;;18.48;55.68;99568.91;2056939;28;19926;-52
2022/03/26 02:36:29;;;;;;;;;;;;;;;18.47;55.88;99570.75;2054004;28;21669;-54
2022/03/26 02:37:30;;;;;;;;;;;;;;;18.48;56.05;99569.72;2055573;28;20028;-54
2022/03/26 02:38:32;;;;;;;;;;;;;;;18.46;55.79;99571.75;2049285;28;19930;-53
2022/03/26 02:39:33;;;;;;;;;;;;;;;18.44;55.96;99570.25;2045078;28;19932;-51
2022/03/26 02:40:34;;;;;;;;;;;;;;;18.44;55.83;99568.44;2051453;28;19948;-53
2022/03/26 02:41:35;;;;;;;;;;;;;;;18.45;56.12;99569.25;2055945;28;19922;-50
2022/03/26 02:42:36;;;;;;;;;;;;;;;18.46;55.69;99568.22;2055714;28;20444;-53
2022/03/26 02:43:37;;;;;;;;;;;;;;;18.44;55.91;99571.13;2053914;28;20261;-53
2022/03/26 02:44:39;;;;;;;;;;;;;;;18.43;55.93;99569.44;2051202;28;19929;-54
2022/03/26 02:45:43;;;;;;;;;;;;;;;18.42;55.90;99577.69;2053974;28;19968;-50
2022/03/26 02:46:45;;;;;;;;;;;;;;;18.43;55.77;99573.97;2053539;28;21843;-53
2022/03/26 02:47:48;;;;;;;;;;;;;;;18.43;55.75;99574.81;2053565;28;20298;-54
2022/03/26 02:48:50;;;;;;;;;;;;;;;18.42;55.96;99578.50;2053538;28;19925;-56
2022/03/26 02:49:50;;;;;;;;;;;;;;;18.42;56.02;99575.81;2057053;28;19937;-58
2022/03/26 02:50:53;;;;;;;;;;;;;;;18.42;55.77;99578.50;2056448;28;19930;-52
2022/03/26 02:51:54;;;;;;;;;;;;;;;18.42;55.93;99572.31;2053468;28;20028;-58
2022/03/26 02:52:55;;;;;;;;;;;;;;;18.40;55.90;99580.53;2053804;28;19922;-57
2022/03/26 02:53:56;;;;;;;;;;;;;;;18.39;55.88;99576.19;2053924;28;19929;-52
2022/03/26 02:54:58;;;;;;;;;;;;;;;18.39;55.88;99581.56;2055204;28;19952;-55
2022/03/26 02:55:58;;;;;;;;;;;;;;;18.41;55.83;99584.03;2046224;28;19933;-54
2022/03/26 02:57:00;;;;;;;;;;;;;;;18.40;55.46;99585.91;2050544;28;19928;-56
2022/03/26 02:58:00;;;;;;;;;;;;;;;18.39;55.83;99583.41;2055328;28;20122;-56
2022/03/26 02:59:02;;;;;;;;;;;;;;;18.39;55.96;99580.72;2055057;28;19984;-59
2022/03/26 03:00:04;;;;;;;;;;;;;;;18.38;56.02;99581.72;2051104;28;19922;-58
2022/03/26 03:01:05;;;;;;;;;;;;;;;18.37;56.05;99580.91;2059000;28;19936;-56
2022/03/26 03:02:09;;;;;;;;;;;;;;;18.37;56.02;99580.91;2053494;28;20698;-54
2022/03/26 03:03:10;;;;;;;;;;;;;;;18.38;56.08;99579.03;2056238;28;19921;-51
2022/03/26 03:04:12;;;;;;;;;;;;;;;18.36;55.83;99576.53;2053239;28;19930;-55
2022/03/26 03:05:12;;;;;;;;;;;;;;;18.35;56.07;99582.09;2052147;28;20486;-57
2022/03/26 03:06:15;;;;;;;;;;;;;;;18.35;55.99;99579.41;2055012;28;19926;-57
2022/03/26 03:07:16;;;;;;;;;;;;;;;18.35;55.88;99577.53;2056061;28;19922;-54
2022/03/26 03:08:17;;;;;;;;;;;;;;;18.35;55.99;99582.91;2053828;28;20009;-54
2022/03/26 03:09:18;;;;;;;;;;;;;;;18.35;55.80;99579.41;2057236;28;19961;-54
2022/03/26 03:10:19;;;;;;;;;;;;;;;18.32;55.94;99583.28;2052865;28;20002;-56
2022/03/26 03:11:20;;;;;;;;;;;;;;;18.33;56.24;99576.91;2056417;28;20025;-55
2022/03/26 03:12:22;;;;;;;;;;;;;;;18.33;56.04;99576.91;2055333;28;19933;-55
2022/03/26 03:13:22;;;;;;;;;;;;;;;18.33;56.06;99576.03;2054507;28;19921;-55
2022/03/26 03:14:24;;;;;;;;;;;;;;;18.32;55.85;99580.59;2057067;28;19932;-55
2022/03/26 03:15:25;;;;;;;;;;;;;;;18.30;55.77;99586.16;2053180;28;19973;-54
2022/03/26 03:16:26;;;;;;;;;;;;;;;18.29;56.15;99578.25;2058582;28;20339;-53
2022/03/26 03:17:27;;;;;;;;;;;;;;;18.30;55.95;99579.91;2058901;28;19925;-51
2022/03/26 03:18:28;;;;;;;;;;;;;;;18.29;56.13;99576.41;2057754;28;19926;-58
2022/03/26 03:19:29;;;;;;;;;;;;;;;18.30;55.94;99579.91;2054345;28;20303;-56
2022/03/26 03:20:31;;;;;;;;;;;;;;;18.28;56.06;99577.44;2056507;28;19956;-50
2022/03/26 03:21:33;;;;;;;;;;;;;;;18.30;56.19;99585.28;2047486;28;19922;-57
2022/03/26 03:22:34;;;;;;;;;;;;;;;18.27;56.14;99581.13;2055109;28;20283;-55
2022/03/26 03:23:35;;;;;;;;;;;;;;;18.27;55.87;99578.44;2057295;28;20287;-53
2022/03/26 03:24:36;;;;;;;;;;;;;;;18.27;55.89;99580.28;2057568;28;19925;-57
2022/03/26 03:25:37;;;;;;;;;;;;;;;18.27;55.54;99581.13;2056804;28;20503;-53
2022/03/26 03:26:39;;;;;;;;;;;;;;;18.25;55.90;99576.97;2055157;28;19926;-55
2022/03/26 03:27:40;;;;;;;;;;;;;;;18.25;55.82;99577.78;2056119;28;19926;-55
2022/03/26 03:28:42;;;;;;;;;;;;;;;18.26;56.02;99578.63;2055674;28;19961;-54
2022/03/26 03:29:43;;;;;;;;;;;;;;;18.26;56.05;99582.13;2056972;28;19933;-51
2022/03/26 03:30:45;;;;;;;;;;;;;;;18.25;56.02;99580.47;2056769;28;19983;-51
2022/03/26 03:31:48;;;;;;;;;;;;;;;18.25;55.94;99579.66;2058551;28;19926;-56
2022/03/26 03:32:49;;;;;;;;;;;;;;;18.24;55.85;99580.66;2054985;28;20518;-56
2022/03/26 03:33:50;;;;;;;;;;;;;;;18.22;55.78;99577.28;2056733;28;19926;-53
2022/03/26 03:34:51;;;;;;;;;;;;;;;18.21;56.10;99576.47;2058406;28;21889;-52
2022/03/26 03:35:53;;;;;;;;;;;;;;;18.22;55.92;99575.47;2056351;28;19933;-51
2022/03/26 03:36:55;;;;;;;;;;;;;;;18.22;56.02;99574.59;2055929;28;19932;-55
2022/03/26 03:37:57;;;;;;;;;;;;;;;18.20;55.88;99566.75;2059829;28;19922;-53
2022/03/26 03:38:58;;;;;;;;;;;;;;;18.19;55.79;99574.97;2056607;28;19925;-55
2022/03/26 03:39:59;;;;;;;;;;;;;;;18.20;56.17;99573.97;2058025;28;19929;-49
2022/03/26 03:41:00;;;;;;;;;;;;;;;18.19;55.85;99575.81;2055746;28;19922;-54
2022/03/26 03:42:02;;;;;;;;;;;;;;;18.20;55.93;99576.66;2055780;28;19968;-54
2022/03/26 03:43:03;;;;;;;;;;;;;;;18.19;56.13;99567.78;2056882;28;19937;-55
2022/03/26 03:44:04;;;;;;;;;;;;;;;18.19;56.30;99577.66;2056712;28;19929;-58
2022/03/26 03:45:06;;;;;;;;;;;;;;;18.16;56.15;99572.63;2052036;28;19930;-55
2022/03/26 03:46:08;;;;;;;;;;;;;;;18.18;56.18;99574.13;2057338;28;20323;-52
2022/03/26 03:47:09;;;;;;;;;;;;;;;18.17;56.24;99574.34;2058180;28;20340;-55
2022/03/26 03:48:10;;;;;;;;;;;;;;;18.18;56.24;99567.94;2058074;28;19953;-52
2022/03/26 03:49:11;;;;;;;;;;;;;;;18.16;55.93;99578.00;2057427;28;19942;-55
2022/03/26 03:50:12;;;;;;;;;;;;;;;18.15;56.17;99576.34;2060007;28;19926;-53
2022/03/26 03:51:13;;;;;;;;;;;;;;;18.16;56.02;99578.00;2057908;28;19922;-56
2022/03/26 03:52:16;;;;;;;;;;;;;;;18.15;55.94;99570.97;2056250;28;19933;-55
2022/03/26 03:53:17;;;;;;;;;;;;;;;18.17;55.96;99579.69;2048459;28;19922;-50
2022/03/26 03:54:22;;;;;;;;;;;;;;;18.16;56.01;99580.69;2054101;28;19933;-56
2022/03/26 03:55:23;;;;;;;;;;;;;;;18.16;55.80;99572.63;2058197;28;19925;-54
2022/03/26 03:56:24;;;;;;;;;;;;;;;18.14;56.20;99569.31;2056721;28;19973;-52
2022/03/26 03:57:25;;;;;;;;;;;;;;;18.13;56.07;99573.81;2055511;28;19933;-54
2022/03/26 03:58:26;;;;;;;;;;;;;;;18.15;56.20;99577.19;2055283;28;19922;-55
2022/03/26 03:59:27;;;;;;;;;;;;;;;18.13;55.95;99575.69;2053624;28;20535;-56
2022/03/26 04:00:28;;;;;;;;;;;;;;;18.14;56.17;99572.84;2058969;28;19928;-53
2022/03/26 04:01:29;;;;;;;;;;;;;;;18.12;56.19;99571.34;2051903;28;20488;-54
2022/03/26 04:02:33;;;;;;;;;;;;;;;18.12;56.21;99576.72;2053279;28;19925;-55
2022/03/26 04:03:33;;;;;;;;;;;;;;;18.14;56.18;99572.00;2055500;28;19925;-53
2022/03/26 04:04:35;;;;;;;;;;;;;;;18.08;56.15;99568.19;2057509;28;19922;-54
2022/03/26 04:05:35;;;;;;;;;;;;;;;18.06;55.99;99572.88;2059359;28;20089;-51
2022/03/26 04:06:37;;;;;;;;;;;;;;;18.05;55.91;99569.38;2058488;28;19929;-52
2022/03/26 04:07:39;;;;;;;;;;;;;;;18.07;55.84;99571.84;2056614;28;20006;-54
2022/03/26 04:08:41;;;;;;;;;;;;;;;18.07;56.19;99572.69;2052598;28;19928;-54
2022/03/26 04:09:42;;;;;;;;;;;;;;;18.08;56.21;99570.88;2056042;28;20032;-53
2022/03/26 04:10:44;;;;;;;;;;;;;;;18.08;56.09;99566.31;2057558;28;19925;-51
2022/03/26 04:11:44;;;;;;;;;;;;;;;18.07;56.08;99567.31;2055550;28;20394;-59
2022/03/26 04:12:46;;;;;;;;;;;;;;;18.06;55.97;99564.84;2058650;28;19969;-55
2022/03/26 04:13:46;;;;;;;;;;;;;;;18.05;55.92;99571.19;2050704;28;20040;-53
2022/03/26 04:14:48;;;;;;;;;;;;;;;18.07;56.24;99564.63;2054309;28;20588;-54
2022/03/26 04:15:48;;;;;;;;;;;;;;;18.06;56.09;99565.66;2057049;28;20592;-52
2022/03/26 04:16:50;;;;;;;;;;;;;;;18.04;55.92;99565.00;2057149;28;19926;-51
2022/03/26 04:17:52;;;;;;;;;;;;;;;18.04;56.19;99570.38;2056571;28;19929;-55
2022/03/26 04:18:53;;;;;;;;;;;;;;;18.04;55.84;99573.03;2057856;28;19930;-53
2022/03/26 04:19:54;;;;;;;;;;;;;;;18.04;56.18;99565.00;2059337;28;19922;-52
2022/03/26 04:20:56;;;;;;;;;;;;;;;18.04;56.09;99570.38;2056313;28;21079;-52
2022/03/26 04:21:57;;;;;;;;;;;;;;;18.03;56.02;99562.50;2054836;28;20048;-53
2022/03/26 04:23:00;;;;;;;;;;;;;;;18.02;56.04;99567.00;2056766;28;19933;-51
2022/03/26 04:24:00;;;;;;;;;;;;;;;18.02;55.83;99566.19;2053388;28;20343;-50
2022/03/26 04:25:02;;;;;;;;;;;;;;;18.02;56.15;99563.50;2058363;28;19980;-56
2022/03/26 04:26:02;;;;;;;;;;;;;;;18.01;56.08;99564.53;2056965;28;20630;-56
2022/03/26 04:27:04;;;;;;;;;;;;;;;18.02;56.01;99572.38;2058871;28;19928;-54
2022/03/26 04:28:06;;;;;;;;;;;;;;;18.03;56.10;99571.38;2056231;28;20427;-58
2022/03/26 04:29:07;;;;;;;;;;;;;;;18.01;56.07;99562.66;2054971;28;19933;-57
2022/03/26 04:30:09;;;;;;;;;;;;;;;18.01;55.95;99570.72;2056674;28;22183;-56
2022/03/26 04:31:10;;;;;;;;;;;;;;;18.03;56.14;99568.69;2058437;28;20025;-54
2022/03/26 04:32:11;;;;;;;;;;;;;;;18.03;55.97;99567.88;2055793;28;19925;-51
2022/03/26 04:33:13;;;;;;;;;;;;;;;18.03;56.19;99568.69;2059555;28;19929;-55
2022/03/26 04:34:13;;;;;;;;;;;;;;;18.01;56.06;99568.03;2055595;28;19922;-56
2022/03/26 04:35:15;;;;;;;;;;;;;;;18.01;55.78;99567.22;2051430;28;20013;-57
2022/03/26 04:36:16;;;;;;;;;;;;;;;17.97;55.94;99569.41;2058456;28;19965;-54
2022/03/26 04:37:17;;;;;;;;;;;;;;;17.97;55.89;99568.56;2055634;28;19922;-53
2022/03/26 04:38:20;;;;;;;;;;;;;;;17.98;56.15;99573.75;2052606;28;20368;-57
2022/03/26 04:39:21;;;;;;;;;;;;;;;17.98;56.14;99571.06;2052235;28;19936;-56
2022/03/26 04:40:22;;;;;;;;;;;;;;;17.98;55.75;99567.56;2058079;28;19932;-54
2022/03/26 04:41:23;;;;;;;;;;;;;;;18.00;55.97;99569.06;2056289;28;19930;-52
2022/03/26 04:42:25;;;;;;;;;;;;;;;18.01;55.80;99567.22;2057796;28;19953;-53
2022/03/26 04:43:25;;;;;;;;;;;;;;;17.99;55.89;99564.69;2053721;28;19929;-54
2022/03/26 04:44:27;;;;;;;;;;;;;;;17.97;56.04;99563.19;2055342;28;19922;-53
2022/03/26 04:45:29;;;;;;;;;;;;;;;17.98;55.93;99568.41;2054352;28;19925;-52
2022/03/26 04:46:30;;;;;;;;;;;;;;;17.99;55.90;99570.06;2058279;28;19930;-52
2022/03/26 04:47:31;;;;;;;;;;;;;;;17.98;55.80;99571.06;2053609;28;19925;-55
2022/03/26 04:48:32;;;;;;;;;;;;;;;17.96;55.88;99573.09;2058395;28;20348;-52
2022/03/26 04:49:34;;;;;;;;;;;;;;;17.92;56.11;99573.63;2056190;28;19936;-56
2022/03/26 04:50:34;;;;;;;;;;;;;;;17.91;55.84;99580.00;2057190;28;19957;-58
2022/03/26 04:51:36;;;;;;;;;;;;;;;17.92;56.16;99573.63;2057641;28;19922;-57
2022/03/26 04:52:36;;;;;;;;;;;;;;;17.92;55.86;99582.53;2059536;28;19933;-52
2022/03/26 04:53:39;;;;;;;;;;;;;;;17.93;55.99;99583.34;2055136;28;19926;-57
2022/03/26 04:54:42;;;;;;;;;;;;;;;17.92;55.74;99576.31;2054650;28;19926;-55
2022/03/26 04:55:43;;;;;;;;;;;;;;;17.91;55.88;99578.16;2057811;28;19926;-56
2022/03/26 04:56:45;;;;;;;;;;;;;;;17.91;55.78;99578.16;2058785;28;19921;-53
2022/03/26 04:57:47;;;;;;;;;;;;;;;17.93;55.94;99578.81;2055376;28;19922;-56
2022/03/26 04:58:49;;;;;;;;;;;;;;;17.94;56.07;99568.91;2059098;28;19965;-52
2022/03/26 04:59:50;;;;;;;;;;;;;;;17.93;55.97;99578.81;2056738;28;20008;-55
2022/03/26 05:00:51;;;;;;;;;;;;;;;17.90;55.80;99572.97;2050356;28;19929;-54
2022/03/26 05:01:52;;;;;;;;;;;;;;;17.89;55.90;99580.19;2055807;28;20034;-51
2022/03/26 05:02:55;;;;;;;;;;;;;;;17.90;55.87;99573.81;2058888;28;20626;-52
2022/03/26 05:03:55;;;;;;;;;;;;;;;17.90;55.83;99573.81;2054071;28;19937;-56
2022/03/26 05:04:57;;;;;;;;;;;;;;;17.91;55.93;99575.47;2053074;28;20609;-52
2022/03/26 05:05:57;;;;;;;;;;;;;;;17.88;55.67;99566.94;2056650;28;19922;-53
2022/03/26 05:07:00;;;;;;;;;;;;;;;17.88;56.24;99569.63;2057472;28;19926;-53
2022/03/26 05:08:00;;;;;;;;;;;;;;;17.90;56.11;99578.34;2056196;28;19932;-53
2022/03/26 05:09:03;;;;;;;;;;;;;;;17.89;55.96;99571.31;2056012;28;20407;-56
2022/03/26 05:10:04;;;;;;;;;;;;;;;17.93;56.00;99569.94;2054706;28;20001;-58
2022/03/26 05:11:06;;;;;;;;;;;;;;;17.97;56.10;99563.19;2057303;28;20065;-53
2022/03/26 05:12:07;;;;;;;;;;;;;;;18.00;56.05;99570.91;2057650;28;19933;-56
2022/03/26 05:13:08;;;;;;;;;;;;;;;17.99;55.74;99570.06;2056028;28;19929;-58
2022/03/26 05:14:09;;;;;;;;;;;;;;;18.02;55.65;99571.56;2054630;28;19930;-55
2022/03/26 05:15:11;;;;;;;;;;;;;;;18.04;55.54;99575.72;2057281;28;19922;-51
2022/03/26 05:16:13;;;;;;;;;;;;;;;18.08;55.41;99570.88;2055263;28;19925;-53
2022/03/26 05:17:14;;;;;;;;;;;;;;;18.11;55.59;99572.34;2058798;28;19921;-53
2022/03/26 05:18:17;;;;;;;;;;;;;;;18.13;55.58;99564.94;2058402;28;19976;-57
2022/03/26 05:19:17;;;;;;;;;;;;;;;18.16;55.38;99569.97;2055862;28;20580;-53
2022/03/26 05:20:19;;;;;;;;;;;;;;;18.19;55.50;99574.97;2055928;28;19930;-57